Time;durP1;ratioP1;P1;durP2;ratioP2;P2;SDS_P1;SDS_P2;PMS_P1;PMS_P2;Temp;Humidity;BMP_temperature;BMP_pressure;BME280_temperature;BME280_humidity;BME280_pressure;Samples;Min_cycle;Max_cycle;Signal;HPM_P1;HPM_P2
2023/09/21 00:01:06;;;;;;;5.63;2.10;;;19.60;99.90;;;;;;5076777;28;39460;-76
2023/09/21 00:03:35;;;;;;;4.18;2.05;;;19.60;99.90;;;;;;5062893;28;47427;-76
2023/09/21 00:06:03;;;;;;;5.85;2.08;;;19.60;99.90;;;;;;5076762;28;37657;-76
2023/09/21 00:08:30;;;;;;;4.00;2.08;;;19.60;99.90;;;;;;5060655;28;37432;-75
2023/09/21 00:10:58;;;;;;;5.38;1.83;;;19.70;99.90;;;;;;5083011;28;38821;-76
2023/09/21 00:13:28;;;;;;;5.38;2.08;;;19.70;99.90;;;;;;5078097;28;37841;-76
2023/09/21 00:15:55;;;;;;;4.15;2.35;;;19.90;99.90;;;;;;5079104;28;38880;-76
2023/09/21 00:18:23;;;;;;;4.18;1.80;;;19.90;99.90;;;;;;5083138;28;38757;-76
2023/09/21 00:20:53;;;;;;;8.65;1.80;;;20.00;99.90;;;;;;5059297;28;37445;-76
2023/09/21 00:23:24;;;;;;;4.95;2.08;;;20.00;99.90;;;;;;5059079;28;36750;-76
2023/09/21 00:25:57;;;;;;;3.67;1.70;;;20.10;99.90;;;;;;5092318;28;37011;-76
2023/09/21 00:28:24;;;;;;;4.32;1.85;;;20.00;99.90;;;;;;5063272;28;37724;-76
2023/09/21 00:30:57;;;;;;;6.70;1.65;;;20.10;99.90;;;;;;5067745;28;37706;-75
2023/09/21 00:33:28;;;;;;;3.97;2.00;;;20.10;99.90;;;;;;5073582;28;39382;-76
2023/09/21 00:35:55;;;;;;;5.30;2.30;;;20.10;99.90;;;;;;5074533;28;35633;-75
2023/09/21 00:38:22;;;;;;;6.15;2.20;;;20.20;99.90;;;;;;5077078;28;38674;-75
2023/09/21 00:40:55;;;;;;;6.28;2.15;;;20.20;99.90;;;;;;5077238;28;38674;-75
2023/09/21 00:43:25;;;;;;;8.60;2.25;;;20.30;99.90;;;;;;5077728;28;36387;-75
2023/09/21 00:45:53;;;;;;;6.10;1.98;;;20.30;99.40;;;;;;5056201;28;36024;-75
2023/09/21 00:48:25;;;;;;;6.03;1.88;;;20.40;99.20;;;;;;5057437;28;37900;-75
2023/09/21 00:50:54;;;;;;;3.75;1.83;;;20.40;99.90;;;;;;5062344;28;37644;-76
2023/09/21 00:53:22;;;;;;;6.35;2.03;;;20.40;99.60;;;;;;5060349;28;36938;-75
2023/09/21 00:55:52;;;;;;;2.92;2.05;;;20.40;99.40;;;;;;5075191;28;38056;-75
2023/09/21 00:58:22;;;;;;;5.95;2.05;;;20.40;99.90;;;;;;5074535;28;39077;-74
2023/09/21 01:03:27;;;;;;;5.57;1.98;;;20.40;99.90;;;;;;5204076;22;20547;-77
2023/09/21 01:05:54;;;;;;;3.00;1.85;;;20.50;99.50;;;;;;5034116;28;36928;-76
2023/09/21 01:08:28;;;;;;;4.22;1.77;;;20.50;99.60;;;;;;5034836;28;40277;-77
2023/09/21 01:10:55;;;;;;;4.60;2.03;;;20.50;99.50;;;;;;5041991;28;37850;-77
2023/09/21 01:13:23;;;;;;;3.92;2.00;;;20.50;99.90;;;;;;5042814;28;38159;-77
2023/09/21 01:16:02;;;;;;;3.78;2.13;;;20.50;99.90;;;;;;5034117;28;36417;-77
2023/09/21 01:18:29;;;;;;;4.22;1.88;;;20.50;99.90;;;;;;5043559;28;47520;-76
2023/09/21 01:20:56;;;;;;;4.63;1.95;;;20.50;99.90;;;;;;5037291;28;37573;-76
2023/09/21 01:23:42;;;;;;;4.28;1.60;;;20.50;99.90;;;;;;5038326;28;38284;-77
2023/09/21 01:26:08;;;;;;;3.97;1.98;;;20.50;99.90;;;;;;5039844;28;37889;-77
2023/09/21 01:28:36;;;;;;;3.08;1.52;;;20.60;99.90;;;;;;5045628;28;39325;-76
2023/09/21 01:31:05;;;;;;;4.70;2.00;;;20.60;99.40;;;;;;5045764;28;38908;-76
2023/09/21 01:33:33;;;;;;;5.28;2.28;;;20.60;99.40;;;;;;5037157;28;37224;-75
2023/09/21 01:35:59;;;;;;;6.60;2.33;;;20.50;99.90;;;;;;5043325;28;36434;-75
2023/09/21 01:38:25;;;;;;;3.17;1.80;;;20.50;99.30;;;;;;5038018;28;38998;-75
2023/09/21 01:40:51;;;;;;;4.25;1.80;;;20.60;99.20;;;;;;5037394;28;37652;-75
2023/09/21 01:43:17;;;;;;;4.72;1.55;;;20.50;99.00;;;;;;5042185;28;39370;-75
2023/09/21 01:45:49;;;;;;;5.13;1.70;;;20.50;99.80;;;;;;5044541;28;36944;-76
2023/09/21 01:48:20;;;;;;;7.97;1.67;;;20.50;99.90;;;;;;5035663;28;38075;-76
2023/09/21 01:50:48;;;;;;;6.28;2.00;;;20.50;99.90;;;;;;5044226;28;37832;-76
2023/09/21 01:53:19;;;;;;;4.35;1.60;;;20.40;99.90;;;;;;5043065;28;38398;-76
2023/09/21 01:55:47;;;;;;;4.65;2.08;;;20.40;99.90;;;;;;5037593;28;37364;-76
2023/09/21 01:58:14;;;;;;;4.15;1.95;;;20.40;99.90;;;;;;5042460;28;38972;-75
2023/09/21 02:00:46;;;;;;;4.72;1.48;;;20.40;99.90;;;;;;5034792;28;37737;-75
2023/09/21 02:03:17;;;;;;;5.40;1.98;;;20.40;99.90;;;;;;5053422;28;36887;-75
2023/09/21 02:05:46;;;;;;;2.97;1.50;;;20.40;99.90;;;;;;5035394;28;38557;-75
2023/09/21 02:08:13;;;;;;;3.97;1.75;;;20.30;99.90;;;;;;5040215;28;39339;-76
2023/09/21 02:10:40;;;;;;;2.58;1.60;;;20.30;99.90;;;;;;5040327;28;39068;-76
2023/09/21 02:13:07;;;;;;;4.10;1.80;;;20.20;99.90;;;;;;5037455;28;38695;-76
2023/09/21 02:15:35;;;;;;;4.65;1.90;;;20.20;99.90;;;;;;5034085;28;38167;-76
2023/09/21 02:18:02;;;;;;;2.67;1.60;;;20.20;99.90;;;;;;5030749;28;39560;-75
2023/09/21 02:20:30;;;;;;;5.65;1.75;;;20.20;99.90;;;;;;5033539;28;49334;-75
2023/09/21 02:23:00;;;;;;;3.90;1.83;;;20.10;99.90;;;;;;5046481;28;37741;-76
2023/09/21 02:25:31;;;;;;;2.65;1.30;;;20.10;99.90;;;;;;5028795;28;47827;-76
2023/09/21 02:27:57;;;;;;;4.93;1.98;;;20.10;99.90;;;;;;5033870;28;37775;-75
2023/09/21 02:30:24;;;;;;;6.45;1.65;;;20.10;99.90;;;;;;5037427;28;38576;-76
2023/09/21 02:32:53;;;;;;;7.07;2.05;;;20.00;99.90;;;;;;5035008;28;39293;-75
2023/09/21 02:35:26;;;;;;;3.33;1.70;;;19.90;99.90;;;;;;5029653;28;39846;-76
2023/09/21 02:37:54;;;;;;;5.43;1.60;;;19.80;99.90;;;;;;5031866;28;38044;-76
2023/09/21 02:40:22;;;;;;;7.53;2.20;;;19.70;99.90;;;;;;5027374;28;38987;-75
2023/09/21 02:42:51;;;;;;;4.22;1.50;;;19.60;99.90;;;;;;5031726;28;39352;-76
2023/09/21 02:45:23;;;;;;;4.32;1.85;;;19.50;99.90;;;;;;5029814;28;38165;-76
2023/09/21 02:47:52;;;;;;;9.15;1.88;;;19.50;99.90;;;;;;5031940;28;37768;-76
2023/09/21 02:50:27;;;;;;;4.60;1.40;;;19.30;99.90;;;;;;5032540;28;38883;-75
2023/09/21 02:52:55;;;;;;;2.13;1.50;;;19.20;99.90;;;;;;5035083;28;39894;-76
2023/09/21 02:55:22;;;;;;;2.70;1.48;;;19.00;99.90;;;;;;5032331;28;35945;-76
2023/09/21 02:57:55;;;;;;;2.22;1.60;;;18.70;99.90;;;;;;5034172;28;37907;-75
2023/09/21 03:00:22;;;;;;;;;;;18.60;99.90;;;;;;5038907;28;38035;-75
2023/09/21 03:02:49;;;;;;;3.70;1.40;;;18.40;99.90;;;;;;5033831;28;47379;-75
2023/09/21 03:05:17;;;;;;;5.22;1.58;;;18.40;99.90;;;;;;5037380;28;37086;-75
2023/09/21 03:07:48;;;;;;;5.28;1.95;;;18.20;99.90;;;;;;5036233;28;39416;-76
2023/09/21 03:10:16;;;;;;;7.75;1.98;;;18.10;99.90;;;;;;5037094;28;38468;-77
2023/09/21 03:12:42;;;;;;;4.53;1.98;;;18.00;99.90;;;;;;5037337;28;38547;-76
2023/09/21 03:15:18;;;;;;;5.15;2.40;;;18.00;99.90;;;;;;5053730;28;36486;-76
2023/09/21 03:17:45;;;;;;;3.88;1.83;;;17.90;99.90;;;;;;5034132;28;39304;-77
2023/09/21 03:20:34;;;;;;;5.40;2.35;;;17.90;99.90;;;;;;5037303;28;38065;-76
2023/09/21 03:23:09;;;;;;;3.80;2.13;;;17.80;99.90;;;;;;5034286;28;38494;-76
2023/09/21 03:25:40;;;;;;;4.78;2.38;;;17.80;99.90;;;;;;5038352;28;50352;-76
2023/09/21 03:28:14;;;;;;;4.47;2.95;;;17.80;99.90;;;;;;5043689;28;38467;-76
2023/09/21 03:30:50;;;;;;;6.13;2.10;;;17.80;99.90;;;;;;5036390;28;37345;-76
2023/09/21 03:33:18;;;;;;;4.80;2.78;;;17.90;99.90;;;;;;5039214;28;38127;-76
2023/09/21 03:35:44;;;;;;;5.53;2.50;;;17.90;99.90;;;;;;5041002;28;36814;-77
2023/09/21 03:38:12;;;;;;;6.43;2.70;;;17.90;99.90;;;;;;5034075;28;38358;-76
2023/09/21 03:40:40;;;;;;;4.47;2.47;;;17.90;99.90;;;;;;5037579;28;40135;-76
2023/09/21 03:43:12;;;;;;;5.75;3.03;;;17.80;99.90;;;;;;5034109;28;38335;-76
2023/09/21 03:45:39;;;;;;;;;;;17.80;99.90;;;;;;5042026;28;36940;-75
2023/09/21 03:48:08;;;;;;;4.63;2.78;;;17.80;99.90;;;;;;5036789;28;39464;-76
2023/09/21 03:50:35;;;;;;;5.40;3.10;;;17.80;99.90;;;;;;5039736;28;37390;-78
2023/09/21 03:53:05;;;;;;;4.40;2.92;;;17.90;99.90;;;;;;5034771;28;38492;-75
2023/09/21 03:55:32;;;;;;;6.28;2.90;;;17.90;99.90;;;;;;5041795;28;36934;-76
2023/09/21 03:57:58;;;;;;;5.88;2.95;;;17.90;99.90;;;;;;5037225;28;38099;-78
2023/09/21 04:03:02;;;;;;;4.85;3.38;;;17.90;99.90;;;;;;5034367;28;39545;-78
2023/09/21 04:05:32;;;;;;;7.20;2.92;;;17.80;99.90;;;;;;5034638;28;47640;-79
2023/09/21 04:07:59;;;;;;;6.18;3.00;;;17.80;99.90;;;;;;5034540;28;40159;-79
2023/09/21 04:10:25;;;;;;;6.03;3.20;;;17.70;99.90;;;;;;5040337;28;37277;-79
2023/09/21 04:12:55;;;;;;;6.38;2.63;;;17.70;99.90;;;;;;5039254;28;37202;-80
2023/09/21 04:15:26;;;;;;;4.20;2.45;;;17.60;99.90;;;;;;5037049;28;36898;-79
2023/09/21 04:17:54;;;;;;;3.15;2.08;;;17.60;99.90;;;;;;5031967;28;40022;-80
2023/09/21 04:20:21;;;;;;;5.03;2.60;;;17.50;99.90;;;;;;5030133;28;37606;-79
2023/09/21 04:22:50;;;;;;;2.92;2.05;;;17.50;99.90;;;;;;5032784;28;36944;-80
2023/09/21 04:25:16;;;;;;;4.80;2.40;;;17.60;99.90;;;;;;5033686;28;37881;-82
2023/09/21 04:27:48;;;;;;;6.88;2.70;;;17.50;99.90;;;;;;5031567;28;38811;-81
2023/09/21 04:30:16;;;;;;;4.63;2.70;;;17.50;99.90;;;;;;5032744;28;40491;-82
2023/09/21 04:32:46;;;;;;;3.97;2.72;;;17.50;99.90;;;;;;5032817;28;39677;-81
2023/09/21 04:35:13;;;;;;;4.75;2.50;;;17.40;99.90;;;;;;5034745;28;37768;-82
2023/09/21 04:37:42;;;;;;;4.32;2.70;;;17.50;99.90;;;;;;5032521;28;39242;-82
2023/09/21 04:40:10;;;;;;;5.75;2.65;;;17.50;99.90;;;;;;5029614;28;36759;-82
2023/09/21 04:42:38;;;;;;;5.70;3.40;;;17.50;99.90;;;;;;5045314;28;38826;-83
2023/09/21 04:45:09;;;;;;;8.63;4.03;;;17.40;99.90;;;;;;5032715;28;38424;-81
2023/09/21 04:47:40;;;;;;;5.20;3.17;;;17.40;99.90;;;;;;5030609;28;38614;-80
2023/09/21 04:50:09;;;;;;;8.48;3.88;;;17.50;99.90;;;;;;5023168;28;37567;-79
2023/09/21 04:52:35;;;;;;;7.97;3.28;;;17.50;99.90;;;;;;5047220;28;37767;-81
2023/09/21 04:55:08;;;;;;;5.35;3.08;;;17.40;99.90;;;;;;5032603;28;36544;-80
2023/09/21 04:57:35;;;;;;;9.05;3.45;;;17.40;99.90;;;;;;5030016;28;48648;-82
2023/09/21 05:00:07;;;;;;;5.72;3.08;;;17.40;99.90;;;;;;5032480;28;38977;-82
2023/09/21 05:02:33;;;;;;;4.25;2.70;;;17.30;99.90;;;;;;4991463;28;1147034;-84
2023/09/21 05:05:00;;;;;;;5.13;2.15;;;17.30;99.90;;;;;;5034146;28;38922;-80
2023/09/21 05:07:27;;;;;;;3.88;2.22;;;17.20;99.90;;;;;;5039698;28;38996;-80
2023/09/21 05:09:53;;;;;;;4.80;3.38;;;17.10;99.90;;;;;;5039515;28;38284;-83
2023/09/21 05:12:19;;;;;;;4.40;2.70;;;17.00;99.90;;;;;;5029924;28;37828;-84
2023/09/21 05:14:46;;;;;;;4.95;2.90;;;17.00;99.90;;;;;;5035998;28;38240;-79
2023/09/21 05:17:12;;;;;;;4.93;3.00;;;16.90;99.90;;;;;;5032635;28;38821;-84
2023/09/21 05:19:38;;;;;;;7.53;2.97;;;16.90;99.90;;;;;;5039513;28;39626;-85
2023/09/21 05:22:04;;;;;;;5.32;2.65;;;16.90;99.90;;;;;;5032679;28;38195;-83
2023/09/21 05:24:32;;;;;;;5.22;1.48;;;16.80;99.90;;;;;;5033458;28;36773;-83
2023/09/21 05:26:59;;;;;;;4.60;1.40;;;16.60;99.90;;;;;;5033956;28;40250;-83
2023/09/21 05:29:25;;;;;;;5.82;0.93;;;16.30;99.90;;;;;;5029313;28;37927;-81
2023/09/21 05:31:51;;;;;;;4.22;1.00;;;16.10;99.90;;;;;;5032631;28;37830;-84
2023/09/21 05:34:17;;;;;;;4.95;1.10;;;15.70;99.90;;;;;;5034009;28;37510;-81
2023/09/21 05:36:49;;;;;;;3.15;0.63;;;15.50;99.90;;;;;;5027078;28;38568;-79
2023/09/21 05:39:16;;;;;;;3.10;0.98;;;15.40;99.90;;;;;;5031708;28;37422;-80
2023/09/21 05:41:44;;;;;;;4.82;1.20;;;15.40;99.90;;;;;;5033002;28;39477;-79
2023/09/21 05:44:10;;;;;;;5.90;1.60;;;15.40;99.90;;;;;;5028657;28;37332;-76
2023/09/21 05:46:38;;;;;;;4.35;0.98;;;15.30;99.90;;;;;;5033859;28;38778;-78
2023/09/21 05:49:07;;;;;;;4.38;0.90;;;15.40;99.90;;;;;;5028134;28;37454;-82
2023/09/21 05:51:39;;;;;;;1.95;1.00;;;15.30;99.90;;;;;;5038345;28;38747;-80
2023/09/21 05:54:06;;;;;;;3.05;1.10;;;15.40;99.90;;;;;;5033884;28;38125;-83
2023/09/21 05:56:32;;;;;;;4.47;1.00;;;15.40;99.90;;;;;;5030891;28;40073;-82
2023/09/21 05:59:00;;;;;;;4.53;1.02;;;15.40;99.90;;;;;;5042005;28;38782;-83
2023/09/21 06:01:31;;;;;;;3.83;1.20;;;15.40;99.90;;;;;;5039826;28;38776;-83
2023/09/21 06:03:59;;;;;;;2.10;1.15;;;15.40;99.90;;;;;;5038236;28;36562;-79
2023/09/21 06:06:28;;;;;;;3.65;1.05;;;15.40;99.90;;;;;;5038169;28;39320;-80
2023/09/21 06:08:56;;;;;;;4.97;1.25;;;15.40;99.90;;;;;;5037310;28;39283;-80
2023/09/21 06:11:26;;;;;;;4.55;1.10;;;15.40;99.90;;;;;;5037299;28;36468;-81
2023/09/21 06:13:54;;;;;;;4.60;1.13;;;15.40;99.90;;;;;;5036401;28;35864;-78
2023/09/21 06:16:21;;;;;;;2.67;1.10;;;15.50;99.90;;;;;;5039664;28;38159;-82
2023/09/21 06:18:48;;;;;;;3.45;1.48;;;15.50;99.90;;;;;;5039293;28;37530;-79
2023/09/21 06:21:17;;;;;;;2.95;1.08;;;15.50;99.90;;;;;;5041634;28;38838;-77
2023/09/21 06:23:44;;;;;;;3.63;1.25;;;15.40;99.90;;;;;;5034679;28;36700;-80
2023/09/21 06:26:14;;;;;;;5.43;1.20;;;15.40;99.90;;;;;;5034455;28;38799;-83
2023/09/21 06:28:47;;;;;;;5.18;1.38;;;15.40;99.90;;;;;;5037033;28;40194;-81
2023/09/21 06:31:14;;;;;;;3.80;1.05;;;15.40;99.90;;;;;;5035780;28;37604;-77
2023/09/21 06:33:41;;;;;;;5.28;1.50;;;15.50;99.90;;;;;;5044082;28;36892;-80
2023/09/21 06:36:18;;;;;;;2.80;1.27;;;15.40;99.90;;;;;;5040157;28;38447;-83
2023/09/21 06:38:45;;;;;;;1.98;1.08;;;15.40;99.90;;;;;;5035331;28;37301;-83
2023/09/21 06:41:11;;;;;;;5.28;1.38;;;15.40;99.90;;;;;;5040584;28;37098;-84
2023/09/21 06:43:40;;;;;;;3.75;1.02;;;15.30;99.90;;;;;;5041262;28;36130;-77
2023/09/21 06:46:07;;;;;;;4.00;1.70;;;15.30;99.90;;;;;;5050069;28;37615;-81
2023/09/21 06:48:33;;;;;;;6.43;1.92;;;15.30;99.90;;;;;;5043150;28;38513;-83
2023/09/21 06:50:59;;;;;;;4.78;1.42;;;15.30;99.90;;;;;;5037977;28;37104;-83
2023/09/21 06:53:25;;;;;;;5.70;1.02;;;15.40;99.90;;;;;;5035273;28;38174;-80
2023/09/21 06:55:51;;;;;;;5.90;1.75;;;15.40;99.90;;;;;;5040391;28;38665;-79
2023/09/21 06:58:17;;;;;;;4.70;1.63;;;15.40;99.90;;;;;;5042155;28;37875;-81
2023/09/21 07:00:43;;;;;;;5.57;1.55;;;15.30;99.90;;;;;;5045470;28;37824;-81
2023/09/21 07:03:12;;;;;;;3.67;1.45;;;15.30;99.90;;;;;;5029658;28;37231;-86
2023/09/21 07:05:40;;;;;;;3.88;1.50;;;15.30;99.90;;;;;;5045476;28;39251;-81
2023/09/21 07:08:06;;;;;;;5.40;1.60;;;15.30;99.90;;;;;;5046378;28;37365;-83
2023/09/21 07:10:32;;;;;;;3.75;1.38;;;15.30;99.90;;;;;;5053969;28;39093;-83
2023/09/21 07:12:58;;;;;;;3.67;1.40;;;15.30;99.90;;;;;;5038116;28;36903;-84
2023/09/21 07:15:24;;;;;;;4.72;1.40;;;15.30;99.90;;;;;;5043149;28;38804;-83
2023/09/21 07:17:51;;;;;;;3.97;1.10;;;15.30;99.90;;;;;;5042410;28;38175;-90
2023/09/21 07:20:23;;;;;;;5.88;1.48;;;15.30;99.90;;;;;;5038610;28;36406;-84
2023/09/21 07:22:50;;;;;;;6.15;1.55;;;15.30;99.90;;;;;;5036260;28;37197;-85
2023/09/21 07:25:16;;;;;;;6.97;1.83;;;15.30;99.90;;;;;;5045938;28;38987;-83
2023/09/21 07:27:43;;;;;;;9.00;1.40;;;15.30;99.90;;;;;;5041049;28;38898;-84
2023/09/21 07:30:09;;;;;;;3.53;1.10;;;15.40;99.90;;;;;;5041317;28;40328;-82
2023/09/21 07:32:35;;;;;;;4.20;1.10;;;15.40;99.90;;;;;;5056705;28;38386;-83
2023/09/21 07:35:06;;;;;;;6.25;1.30;;;15.50;99.90;;;;;;5047745;28;39060;-82
2023/09/21 07:37:32;;;;;;;7.10;1.40;;;15.50;99.90;;;;;;5043036;28;47649;-82
2023/09/21 07:40:04;;;;;;;5.07;1.33;;;15.50;99.90;;;;;;5046993;28;39333;-83
2023/09/21 07:42:30;;;;;;;3.67;1.38;;;15.60;99.90;;;;;;5045627;28;47651;-83
2023/09/21 07:44:56;;;;;;;6.55;1.70;;;15.60;99.90;;;;;;5053538;28;38064;-79
2023/09/21 07:47:23;;;;;;;3.50;1.80;;;15.60;99.90;;;;;;5047354;28;38798;-81
2023/09/21 07:49:50;;;;;;;4.50;1.55;;;15.60;99.90;;;;;;5054610;28;37422;-82
2023/09/21 07:52:17;;;;;;;4.65;1.40;;;15.50;99.90;;;;;;5048552;28;38877;-82
2023/09/21 07:54:44;;;;;;;5.60;1.92;;;15.50;99.90;;;;;;5058975;28;39377;-83
2023/09/21 07:57:10;;;;;;;3.95;1.30;;;15.60;99.90;;;;;;5047569;28;39059;-84
2023/09/21 07:59:36;;;;;;;4.68;1.40;;;15.60;99.90;;;;;;5039570;28;36940;-83
2023/09/21 08:02:03;;;;;;;1.92;1.00;;;15.60;99.90;;;;;;5043860;28;36182;-83
2023/09/21 08:04:29;;;;;;;3.40;1.15;;;15.60;99.90;;;;;;5043444;28;39348;-83
2023/09/21 08:06:56;;;;;;;3.97;1.70;;;15.50;99.90;;;;;;5039087;28;38678;-85
2023/09/21 08:09:22;;;;;;;8.10;1.63;;;15.50;99.90;;;;;;5047465;28;37903;-84
2023/09/21 08:11:48;;;;;;;7.45;1.20;;;15.50;99.90;;;;;;5039395;28;37567;-83
2023/09/21 08:14:14;;;;;;;5.53;1.40;;;15.50;99.90;;;;;;5043990;28;39915;-83
2023/09/21 08:16:41;;;;;;;5.78;1.40;;;15.50;99.90;;;;;;5042132;28;37096;-84
2023/09/21 08:19:07;;;;;;;7.50;1.38;;;15.50;99.90;;;;;;5043027;28;37219;-82
2023/09/21 08:21:34;;;;;;;4.15;1.38;;;15.60;99.90;;;;;;5044097;28;37985;-83
2023/09/21 08:24:00;;;;;;;5.38;1.30;;;15.60;99.90;;;;;;5046185;28;38256;-83
2023/09/21 08:26:26;;;;;;;4.13;1.45;;;15.60;99.90;;;;;;5036719;28;47944;-77
2023/09/21 08:28:53;;;;;;;5.75;1.33;;;15.60;99.90;;;;;;5041733;28;38736;-80
2023/09/21 08:31:19;;;;;;;4.03;1.25;;;15.60;99.90;;;;;;5037703;28;36344;-78
2023/09/21 08:33:46;;;;;;;2.78;1.10;;;15.60;99.90;;;;;;5040186;28;38406;-78
2023/09/21 08:36:15;;;;;;;3.83;1.10;;;15.50;99.90;;;;;;5040377;28;37890;-79
2023/09/21 08:38:42;;;;;;;2.55;1.15;;;15.50;99.90;;;;;;5046791;28;37733;-79
2023/09/21 08:41:08;;;;;;;4.07;1.40;;;15.50;99.90;;;;;;5054813;28;37495;-79
2023/09/21 08:43:35;;;;;;;5.22;1.30;;;15.50;99.90;;;;;;5046731;28;38403;-80
2023/09/21 08:46:01;;;;;;;2.60;1.00;;;15.60;99.90;;;;;;5049030;28;37487;-79
2023/09/21 08:48:29;;;;;;;2.47;1.15;;;15.60;99.90;;;;;;5048846;28;47508;-80
2023/09/21 08:50:55;;;;;;;4.53;1.17;;;15.60;99.90;;;;;;5052745;28;37678;-79
2023/09/21 08:53:22;;;;;;;4.28;1.05;;;15.60;99.90;;;;;;5047639;28;38856;-78
2023/09/21 08:55:52;;;;;;;3.80;1.65;;;15.60;99.90;;;;;;5041891;28;36643;-81
2023/09/21 08:58:23;;;;;;;3.33;1.13;;;15.60;99.90;;;;;;5033202;28;37369;-81
2023/09/21 09:00:54;;;;;;;3.80;1.37;;;15.50;99.90;;;;;;5044836;28;37545;-82
2023/09/21 09:03:27;;;;;;;3.60;1.27;;;15.50;99.90;;;;;;5043774;28;37568;-82
2023/09/21 09:05:58;;;;;;;4.72;1.20;;;15.50;99.90;;;;;;5046876;28;37968;-82
2023/09/21 09:08:25;;;;;;;4.45;1.10;;;15.50;99.90;;;;;;5036213;28;39944;-82
2023/09/21 09:10:53;;;;;;;4.50;1.25;;;15.50;99.90;;;;;;5046906;28;36394;-81
2023/09/21 09:13:40;;;;;;;1.95;1.05;;;15.50;99.90;;;;;;5036104;28;39322;-82
2023/09/21 09:16:08;;;;;;;2.60;1.00;;;15.50;99.90;;;;;;5038977;28;37475;-81
2023/09/21 09:18:36;;;;;;;3.17;0.95;;;15.50;99.90;;;;;;5038312;28;37157;-81
2023/09/21 09:21:07;;;;;;;2.00;0.88;;;15.50;99.90;;;;;;5032846;28;36081;-82
2023/09/21 09:23:33;;;;;;;5.55;1.38;;;15.50;99.90;;;;;;5035796;28;37917;-82
2023/09/21 09:26:08;;;;;;;3.55;1.17;;;15.50;99.90;;;;;;5036004;28;37461;-80
2023/09/21 09:28:34;;;;;;;7.20;1.90;;;15.60;99.90;;;;;;5037094;28;47427;-78
2023/09/21 09:31:06;;;;;;;1.95;1.10;;;15.60;99.90;;;;;;5038229;28;36195;-79
2023/09/21 09:33:33;;;;;;;3.23;0.87;;;15.50;99.90;;;;;;5038695;28;48904;-81
2023/09/21 09:35:59;;;;;;;3.65;0.70;;;15.40;99.90;;;;;;5038456;28;37672;-84
2023/09/21 09:38:25;;;;;;;16.15;2.55;;;15.30;99.90;;;;;;5035413;28;38141;-81
2023/09/21 09:40:52;;;;;;;2.90;0.90;;;15.10;99.90;;;;;;5042603;28;35870;-79
2023/09/21 09:43:20;;;;;;;4.05;1.55;;;15.10;99.90;;;;;;5040606;28;37934;-81
2023/09/21 09:45:47;;;;;;;1.80;0.70;;;15.10;99.90;;;;;;5046576;28;39309;-81
2023/09/21 09:48:18;;;;;;;3.13;1.17;;;15.10;99.90;;;;;;5043230;28;37465;-80
2023/09/21 09:50:54;;;;;;;3.58;0.98;;;15.10;99.90;;;;;;5041366;28;36966;-79
2023/09/21 09:53:23;;;;;;;1.00;0.70;;;15.10;99.90;;;;;;5051212;28;38031;-79
2023/09/21 09:55:53;;;;;;;2.95;0.88;;;15.10;99.90;;;;;;5033319;28;38029;-79
2023/09/21 09:58:22;;;;;;;1.88;0.77;;;15.10;99.90;;;;;;5041860;28;37593;-81
2023/09/21 10:00:51;;;;;;;1.98;0.88;;;15.20;99.90;;;;;;5036022;28;36969;-79
2023/09/21 10:03:18;;;;;;;2.15;1.00;;;15.30;99.90;;;;;;5038951;28;39922;-79
2023/09/21 10:05:46;;;;;;;2.55;1.25;;;15.20;99.90;;;;;;5050335;28;38481;-79
2023/09/21 10:08:17;;;;;;;3.83;0.88;;;15.10;99.90;;;;;;5043939;28;38230;-80
2023/09/21 10:10:51;;;;;;;3.03;1.05;;;15.00;99.90;;;;;;5046695;28;37669;-79
2023/09/21 10:13:18;;;;;;;2.58;1.10;;;15.00;99.90;;;;;;5043827;28;40552;-81
2023/09/21 10:16:07;;;;;;;2.65;1.08;;;14.90;99.90;;;;;;5044715;28;39379;-77
2023/09/21 10:18:37;;;;;;;1.85;0.85;;;15.10;99.90;;;;;;5038145;28;47484;-79
2023/09/21 10:21:23;;;;;;;3.25;1.15;;;15.10;99.90;;;;;;5043748;28;38467;-79
2023/09/21 10:24:13;;;;;;;2.20;0.80;;;15.20;99.90;;;;;;5035109;28;39165;-79
2023/09/21 10:26:45;;;;;;;2.38;1.20;;;15.30;99.90;;;;;;5045598;28;48424;-81
2023/09/21 10:29:12;;;;;;;3.22;0.90;;;15.30;99.90;;;;;;5044963;28;38943;-79
2023/09/21 10:31:43;;;;;;;1.35;0.90;;;15.40;99.90;;;;;;5038138;28;36697;-80
2023/09/21 10:34:12;;;;;;;2.78;1.15;;;15.40;99.90;;;;;;5043996;28;38685;-79
2023/09/21 10:36:44;;;;;;;1.95;1.02;;;15.30;99.90;;;;;;5046922;28;37942;-79
2023/09/21 10:39:11;;;;;;;4.88;1.20;;;15.30;99.90;;;;;;5046620;28;38346;-79
2023/09/21 10:41:45;;;;;;;3.28;1.50;;;15.40;99.90;;;;;;5053219;28;37021;-78
2023/09/21 10:44:13;;;;;;;4.80;1.52;;;15.50;99.90;;;;;;5048037;28;38170;-78
2023/09/21 10:46:42;;;;;;;4.28;1.63;;;15.50;99.90;;;;;;5047230;28;37418;-79
2023/09/21 10:49:13;;;;;;;5.97;1.88;;;15.30;99.90;;;;;;5041395;28;38258;-79
2023/09/21 10:51:40;;;;;;;4.38;1.50;;;15.20;99.90;;;;;;5043684;28;37998;-79
2023/09/21 10:54:12;;;;;;;6.32;1.63;;;15.10;99.90;;;;;;5049555;28;37898;-78
2023/09/21 10:56:41;;;;;;;2.53;1.55;;;15.20;99.90;;;;;;5042366;28;37461;-79
2023/09/21 10:59:08;;;;;;;2.92;1.55;;;15.00;99.90;;;;;;5054610;28;38457;-78
2023/09/21 11:01:37;;;;;;;2.03;1.30;;;15.10;99.90;;;;;;5051310;28;36878;-79
2023/09/21 11:04:04;;;;;;;2.45;1.35;;;15.00;99.90;;;;;;5053609;28;37864;-79
2023/09/21 11:06:30;;;;;;;2.15;1.13;;;15.00;99.90;;;;;;5044050;28;37890;-79
2023/09/21 11:08:56;;;;;;;2.13;1.55;;;14.90;99.90;;;;;;5053485;28;37191;-79
2023/09/21 11:11:25;;;;;;;2.78;1.38;;;14.80;99.90;;;;;;5048612;28;37384;-78
2023/09/21 11:13:52;;;;;;;5.05;1.90;;;14.80;99.90;;;;;;5053629;28;39731;-80
2023/09/21 11:16:18;;;;;;;3.60;1.40;;;14.80;99.90;;;;;;5046128;28;39164;-79
2023/09/21 11:18:46;;;;;;;4.43;1.80;;;14.90;99.90;;;;;;5052156;28;37111;-79
2023/09/21 11:21:12;;;;;;;3.42;1.88;;;15.00;99.90;;;;;;5052430;28;37343;-79
2023/09/21 11:23:43;;;;;;;2.42;1.70;;;15.00;99.90;;;;;;5052579;28;40283;-79
2023/09/21 11:26:14;;;;;;;3.33;1.92;;;15.00;99.90;;;;;;5038155;28;40502;-78
2023/09/21 11:28:42;;;;;;;3.70;1.80;;;15.10;99.90;;;;;;5058996;28;38334;-79
2023/09/21 11:31:08;;;;;;;3.22;1.90;;;15.20;99.90;;;;;;5040296;28;36616;-81
2023/09/21 11:33:35;;;;;;;4.75;2.08;;;15.10;99.90;;;;;;5037516;28;37492;-82
2023/09/21 11:36:04;;;;;;;3.47;2.08;;;15.10;99.90;;;;;;5037606;28;37314;-81
2023/09/21 11:38:33;;;;;;;3.95;1.88;;;15.20;99.90;;;;;;5035759;28;46905;-78
2023/09/21 11:41:00;;;;;;;4.07;2.00;;;15.30;99.90;;;;;;5040075;28;37392;-78
2023/09/21 11:43:26;;;;;;;4.15;1.80;;;15.30;99.90;;;;;;5038052;28;39544;-80
2023/09/21 11:45:55;;;;;;;5.30;1.92;;;15.40;99.90;;;;;;5037806;28;40496;-79
2023/09/21 11:48:24;;;;;;;4.22;1.52;;;15.40;99.90;;;;;;5038874;28;37384;-80
2023/09/21 11:50:51;;;;;;;4.20;1.75;;;15.40;99.90;;;;;;5054730;28;37351;-79
2023/09/21 11:53:19;;;;;;;1.95;1.50;;;15.40;99.90;;;;;;5040696;28;37670;-79
2023/09/21 11:55:46;;;;;;;3.35;1.70;;;15.40;99.90;;;;;;5043646;28;38205;-80
2023/09/21 11:58:16;;;;;;;4.07;1.85;;;15.40;99.90;;;;;;5050378;28;37865;-82
2023/09/21 12:00:51;;;;;;;4.40;2.00;;;15.50;99.90;;;;;;5045693;28;36945;-79
2023/09/21 12:03:23;;;;;;;3.90;2.05;;;15.50;99.90;;;;;;5041804;28;39991;-80
2023/09/21 12:05:50;;;;;;;5.35;1.65;;;15.50;99.90;;;;;;5042407;28;38592;-80
2023/09/21 12:08:19;;;;;;;5.20;2.17;;;15.50;99.90;;;;;;5043097;28;38679;-82
2023/09/21 12:10:47;;;;;;;3.78;1.90;;;15.60;99.90;;;;;;5039107;28;37205;-81
2023/09/21 12:13:14;;;;;;;3.75;2.10;;;15.80;99.90;;;;;;5042266;28;39730;-77
2023/09/21 12:15:41;;;;;;;3.67;2.20;;;15.90;99.90;;;;;;5051724;28;38752;-76
2023/09/21 12:18:10;;;;;;;4.38;2.35;;;15.90;99.90;;;;;;5044478;28;37060;-79
2023/09/21 12:20:37;;;;;;;3.47;2.45;;;16.00;99.90;;;;;;5062205;28;37321;-79
2023/09/21 12:23:07;;;;;;;4.32;2.28;;;16.10;99.90;;;;;;5043677;28;37781;-82
2023/09/21 12:25:33;;;;;;;4.57;2.80;;;16.30;99.90;;;;;;5040464;28;37756;-82
2023/09/21 12:27:59;;;;;;;4.63;3.03;;;16.20;99.90;;;;;;5042079;28;36969;-80
2023/09/21 12:30:26;;;;;;;3.15;2.45;;;16.00;99.90;;;;;;5041216;28;37027;-80
2023/09/21 12:32:52;;;;;;;3.90;2.45;;;16.10;99.90;;;;;;5046563;28;39523;-82
2023/09/21 12:35:21;;;;;;;3.95;2.03;;;16.20;99.90;;;;;;5047905;28;38291;-82
2023/09/21 12:37:50;;;;;;;2.50;1.65;;;16.20;99.90;;;;;;5034171;28;38243;-82
2023/09/21 12:40:17;;;;;;;3.28;1.73;;;16.20;99.90;;;;;;5049104;28;36556;-82
2023/09/21 12:42:45;;;;;;;1.90;1.60;;;16.20;99.90;;;;;;5039120;28;38061;-79
2023/09/21 12:45:15;;;;;;;3.80;1.55;;;16.30;99.90;;;;;;5048305;28;38536;-81
2023/09/21 12:47:42;;;;;;;2.53;2.00;;;16.30;99.90;;;;;;5045285;28;37089;-79
2023/09/21 12:50:10;;;;;;;2.28;2.08;;;16.20;99.90;;;;;;5040087;28;36101;-83
2023/09/21 12:52:37;;;;;;;2.28;2.00;;;16.30;99.90;;;;;;5040765;28;37776;-79
2023/09/21 12:55:06;;;;;;;2.63;2.08;;;16.30;99.90;;;;;;5037505;28;39188;-81
2023/09/21 12:57:37;;;;;;;2.72;2.00;;;16.40;99.90;;;;;;5041956;28;47400;-82
2023/09/21 13:00:14;;;;;;;2.00;1.90;;;16.50;99.90;;;;;;5036979;28;38331;-82